createdAt,value
2023-01-30T00:01:18.821Z,-1.40
2023-01-30T00:03:45.581Z,-1.40
2023-01-30T00:06:12.957Z,-1.40
2023-01-30T00:08:40.094Z,-1.40
2023-01-30T00:11:09.337Z,-1.40
2023-01-30T00:13:37.625Z,-1.40
2023-01-30T00:16:04.836Z,-1.40
2023-01-30T00:18:31.731Z,-1.40
2023-01-30T00:20:59.943Z,-1.50
2023-01-30T00:23:27.882Z,-1.50
2023-01-30T00:25:54.812Z,-1.40
2023-01-30T00:28:21.553Z,-1.60
2023-01-30T00:30:52.946Z,-1.60
2023-01-30T00:33:21.519Z,-1.60
2023-01-30T00:35:49.823Z,-1.70
2023-01-30T00:38:17.592Z,-1.70
2023-01-30T00:40:44.379Z,-1.80
2023-01-30T00:43:32.627Z,-1.80
2023-01-30T00:46:19.479Z,-1.80
2023-01-30T00:48:46.064Z,-1.90
2023-01-30T00:51:13.019Z,-1.90
2023-01-30T00:53:39.626Z,-1.90
2023-01-30T00:56:06.827Z,-1.80
2023-01-30T00:58:33.781Z,-2.00
2023-01-30T01:01:00.588Z,-2.00
2023-01-30T01:03:27.180Z,-2.00
2023-01-30T01:05:53.785Z,-2.00
2023-01-30T01:08:22.511Z,-2.10
2023-01-30T01:10:49.153Z,-2.10
2023-01-30T01:13:16.887Z,-2.10
2023-01-30T01:15:43.437Z,-2.10
2023-01-30T01:18:10.019Z,-2.20
2023-01-30T01:20:36.654Z,-2.20
2023-01-30T01:23:03.382Z,-2.30
2023-01-30T01:25:30.062Z,-2.30
2023-01-30T01:27:56.819Z,-2.30
2023-01-30T01:30:23.862Z,-2.40
2023-01-30T01:32:50.751Z,-2.40
2023-01-30T01:35:20.037Z,-2.30
2023-01-30T01:37:47.457Z,-2.40
2023-01-30T01:40:38.301Z,-2.40
2023-01-30T01:43:25.230Z,-2.40
2023-01-30T01:46:18.532Z,-2.30
2023-01-30T01:48:52.539Z,-2.30
2023-01-30T01:51:28.092Z,-2.30
2023-01-30T01:54:03.113Z,-2.20
2023-01-30T01:56:32.023Z,-2.10
2023-01-30T01:59:24.032Z,-2.10
2023-01-30T02:01:52.349Z,-2.20
2023-01-30T02:04:39.835Z,-2.20
2023-01-30T02:07:06.795Z,-2.10
2023-01-30T02:09:33.393Z,-2.00
2023-01-30T02:12:03.397Z,-2.20
2023-01-30T02:14:33.039Z,-2.30
2023-01-30T02:16:59.685Z,-2.30
2023-01-30T02:19:38.415Z,-2.30
2023-01-30T02:22:10.934Z,-2.30
2023-01-30T02:24:49.676Z,-2.40
2023-01-30T02:27:46.735Z,-2.30
2023-01-30T02:30:38.616Z,-2.30
2023-01-30T02:33:12.167Z,-2.20
2023-01-30T02:36:04.491Z,-2.20
2023-01-30T02:38:39.554Z,-2.20
2023-01-30T02:41:43.896Z,-2.10
2023-01-30T02:44:30.119Z,-2.10
2023-01-30T02:47:10.513Z,-2.30
2023-01-30T02:49:48.541Z,-2.40
2023-01-30T02:52:17.458Z,-2.40
2023-01-30T02:54:45.069Z,-2.40
2023-01-30T02:57:23.565Z,-2.40
2023-01-30T02:59:56.796Z,-2.40
2023-01-30T03:02:26.543Z,-2.30
2023-01-30T03:05:04.368Z,-2.30
2023-01-30T03:08:04.834Z,-2.30
2023-01-30T03:10:42.652Z,-2.30
2023-01-30T03:13:38.461Z,-2.40
2023-01-30T03:16:20.509Z,-2.40
2023-01-30T03:18:48.040Z,-2.40
2023-01-30T03:21:14.616Z,-2.50
2023-01-30T03:23:41.181Z,-2.50
2023-01-30T03:26:15.128Z,-2.50
2023-01-30T03:28:42.115Z,-2.50
2023-01-30T03:31:09.780Z,-2.30
2023-01-30T03:33:36.422Z,-2.40
2023-01-30T03:36:03.225Z,-2.40
2023-01-30T03:38:29.842Z,-2.30
2023-01-30T03:40:56.711Z,-2.20
2023-01-30T03:43:23.288Z,-2.10
2023-01-30T03:45:49.990Z,-2.20
2023-01-30T03:48:16.601Z,-2.30
2023-01-30T03:50:43.611Z,-2.30
2023-01-30T03:53:10.660Z,-2.30
2023-01-30T03:55:37.347Z,-2.30
2023-01-30T03:58:03.915Z,-2.40
2023-01-30T04:00:31.611Z,-2.50
2023-01-30T04:02:59.155Z,-2.40
2023-01-30T04:05:25.753Z,-2.30
2023-01-30T04:07:55.911Z,-2.40
2023-01-30T04:10:22.448Z,-2.30
2023-01-30T04:12:49.446Z,-2.20
2023-01-30T04:15:16.531Z,-2.10
2023-01-30T04:17:44.288Z,-2.10
2023-01-30T04:20:11.639Z,-2.10
2023-01-30T04:22:38.309Z,-2.00
2023-01-30T04:25:05.207Z,-2.10
2023-01-30T04:27:31.817Z,-2.20
2023-01-30T04:29:58.360Z,-2.10
2023-01-30T04:32:26.560Z,-2.00
2023-01-30T04:34:53.138Z,-2.10
2023-01-30T04:37:19.795Z,-1.90
2023-01-30T04:39:46.389Z,-2.10
2023-01-30T04:42:13.104Z,-1.90
2023-01-30T04:44:39.674Z,-1.90
2023-01-30T04:47:06.344Z,-1.70
2023-01-30T04:49:32.966Z,-1.70
2023-01-30T04:51:59.555Z,-1.80
2023-01-30T04:54:26.175Z,-1.80
2023-01-30T04:56:52.745Z,-1.80
2023-01-30T04:59:19.475Z,-1.80
2023-01-30T05:01:46.520Z,-1.80
2023-01-30T05:04:14.314Z,-1.80
2023-01-30T05:06:41.488Z,-1.70
2023-01-30T05:09:08.481Z,-1.70
2023-01-30T05:11:35.230Z,-1.60
2023-01-30T05:14:02.033Z,-1.60
2023-01-30T05:16:29.133Z,-1.80
2023-01-30T05:18:55.816Z,-1.90
2023-01-30T05:21:27.715Z,-1.90
2023-01-30T05:23:56.141Z,-1.90
2023-01-30T05:26:23.754Z,-1.90
2023-01-30T05:28:57.871Z,-1.80
2023-01-30T05:31:24.798Z,-1.80
2023-01-30T05:33:52.395Z,-1.70
2023-01-30T05:36:21.387Z,-1.80
2023-01-30T05:38:48.106Z,-1.80
2023-01-30T05:41:16.300Z,-1.90
2023-01-30T05:43:43.032Z,-1.90
2023-01-30T05:46:11.928Z,-1.80
2023-01-30T05:48:38.616Z,-1.90
2023-01-30T05:51:05.442Z,-1.80
2023-01-30T05:53:37.138Z,-2.00
2023-01-30T05:56:05.596Z,-2.00
2023-01-30T05:58:32.971Z,-2.00
2023-01-30T06:01:09.694Z,-2.00
2023-01-30T06:03:36.817Z,-2.00
2023-01-30T06:06:05.231Z,-2.00
2023-01-30T06:08:32.607Z,-2.20
2023-01-30T06:11:16.712Z,-2.20
2023-01-30T06:13:43.708Z,-2.30
2023-01-30T06:16:12.156Z,-2.40
2023-01-30T06:18:39.275Z,-2.40
2023-01-30T06:21:06.237Z,-2.40
2023-01-30T06:23:33.124Z,-2.30
2023-01-30T06:26:02.135Z,-2.30
2023-01-30T06:28:30.125Z,-2.20
2023-01-30T06:30:56.942Z,-2.20
2023-01-30T06:33:23.656Z,-2.30
2023-01-30T06:35:51.750Z,-2.30
2023-01-30T06:38:20.681Z,-2.30
2023-01-30T06:40:49.902Z,-2.30
2023-01-30T06:43:16.880Z,-2.40
2023-01-30T06:45:43.495Z,-2.40
2023-01-30T06:48:10.637Z,-2.50
2023-01-30T06:50:37.517Z,-2.50
2023-01-30T06:53:07.453Z,-2.50
2023-01-30T06:55:35.618Z,-2.30
2023-01-30T06:58:10.036Z,-2.50
2023-01-30T07:00:39.572Z,-2.60
2023-01-30T07:03:13.865Z,-2.70
2023-01-30T07:05:42.139Z,-2.80
2023-01-30T07:08:09.207Z,-2.70
2023-01-30T07:10:36.402Z,-2.70
2023-01-30T07:13:03.931Z,-2.60
2023-01-30T07:15:32.217Z,-2.50
2023-01-30T07:17:59.682Z,-2.40
2023-01-30T07:20:26.466Z,-2.40
2023-01-30T07:22:54.894Z,-2.30
2023-01-30T07:25:24.299Z,-2.20
2023-01-30T07:27:59.339Z,-2.10
2023-01-30T07:30:27.597Z,-2.00
2023-01-30T07:33:00.207Z,-2.00
2023-01-30T07:35:29.878Z,-2.10
2023-01-30T07:37:56.815Z,-2.00
2023-01-30T07:40:24.479Z,-1.90
2023-01-30T07:43:04.795Z,-1.90
2023-01-30T07:45:36.514Z,-1.90
2023-01-30T07:48:03.555Z,-1.80
2023-01-30T07:50:30.320Z,-1.80
2023-01-30T07:52:56.955Z,-1.70
2023-01-30T07:55:23.938Z,-1.80
2023-01-30T07:57:50.574Z,-1.90
2023-01-30T08:00:18.080Z,-1.90
2023-01-30T08:02:44.845Z,-1.80
2023-01-30T08:05:11.417Z,-1.70
2023-01-30T08:07:38.053Z,-1.70
2023-01-30T08:10:05.866Z,-1.70
2023-01-30T08:12:32.818Z,-1.70
2023-01-30T08:14:59.579Z,-1.80
2023-01-30T08:17:26.371Z,-1.80
2023-01-30T08:19:53.334Z,-1.80
2023-01-30T08:22:20.244Z,-1.80
2023-01-30T08:24:46.922Z,-1.80
2023-01-30T08:27:13.557Z,-1.70
2023-01-30T08:29:40.179Z,-1.70
2023-01-30T08:32:06.779Z,-1.60
2023-01-30T08:34:33.440Z,-1.60
2023-01-30T08:36:59.992Z,-1.50
2023-01-30T08:39:26.540Z,-1.40
2023-01-30T08:41:53.287Z,-1.40
2023-01-30T08:44:20.045Z,-1.30
2023-01-30T08:46:46.804Z,-1.30
2023-01-30T08:49:13.612Z,-1.20
2023-01-30T08:51:40.261Z,-1.10
2023-01-30T08:54:07.845Z,-1.10
2023-01-30T08:56:35.167Z,-1.00
2023-01-30T08:59:02.334Z,-0.90
2023-01-30T09:01:29.210Z,-0.80
2023-01-30T09:03:55.971Z,-0.80
2023-01-30T09:06:25.079Z,-0.70
2023-01-30T09:08:52.664Z,-0.60
2023-01-30T09:11:19.271Z,-0.60
2023-01-30T09:13:48.058Z,-0.50
2023-01-30T09:16:16.128Z,-0.50
2023-01-30T09:18:44.422Z,-0.40
2023-01-30T09:21:12.885Z,-0.30
2023-01-30T09:23:39.955Z,-0.30
2023-01-30T09:26:06.718Z,-0.30
2023-01-30T09:28:34.495Z,-0.20
2023-01-30T09:31:03.622Z,-0.10
2023-01-30T09:33:30.285Z,0.00
2023-01-30T09:35:57.003Z,0.00
2023-01-30T09:38:23.711Z,0.00
2023-01-30T09:40:59.515Z,0.00
2023-01-30T09:43:53.888Z,0.10
2023-01-30T09:46:32.098Z,0.20
2023-01-30T09:49:18.806Z,0.20
2023-01-30T09:52:00.403Z,0.20
2023-01-30T09:54:31.225Z,0.20
2023-01-30T09:57:20.928Z,0.20
2023-01-30T10:00:08.570Z,0.20
2023-01-30T10:02:44.586Z,0.20
2023-01-30T10:05:12.107Z,0.20
2023-01-30T10:08:12.044Z,0.30
2023-01-30T10:11:10.400Z,0.30
2023-01-30T10:13:58.892Z,0.40
2023-01-30T10:16:48.680Z,0.30
2023-01-30T10:19:36.578Z,0.40
2023-01-30T10:22:48.806Z,0.50
2023-01-30T10:25:55.570Z,0.50
2023-01-30T10:28:29.851Z,0.50
2023-01-30T10:31:02.462Z,0.60
2023-01-30T10:33:40.444Z,0.60
2023-01-30T10:36:12.022Z,0.70
2023-01-30T10:38:58.849Z,0.80
2023-01-30T10:41:36.279Z,1.00
2023-01-30T10:44:10.177Z,1.10
2023-01-30T10:47:07.011Z,1.20
2023-01-30T10:49:52.203Z,1.20
2023-01-30T10:52:31.267Z,1.30
2023-01-30T10:55:13.078Z,1.30
2023-01-30T10:57:49.897Z,1.30
2023-01-30T11:00:28.361Z,1.30
2023-01-30T11:03:08.499Z,1.30
2023-01-30T11:05:47.173Z,1.30
2023-01-30T11:08:36.889Z,1.40
2023-01-30T11:11:29.570Z,1.40
2023-01-30T11:14:11.088Z,1.50
2023-01-30T11:16:56.355Z,1.60
2023-01-30T11:19:31.177Z,1.60
2023-01-30T11:22:02.006Z,1.80
2023-01-30T11:24:38.765Z,1.90
2023-01-30T11:27:27.538Z,2.00
2023-01-30T11:30:14.717Z,2.10
2023-01-30T11:32:46.446Z,2.20
2023-01-30T11:35:22.992Z,2.30
2023-01-30T11:37:53.239Z,2.40
2023-01-30T11:40:25.258Z,2.50
2023-01-30T11:43:13.578Z,2.60
2023-01-30T11:45:48.457Z,2.60
2023-01-30T11:48:33.071Z,2.60
2023-01-30T11:51:10.807Z,2.70
2023-01-30T11:54:14.449Z,2.70
2023-01-30T11:56:53.271Z,2.90
2023-01-30T11:59:37.278Z,2.90
2023-01-30T12:02:05.731Z,3.00
2023-01-30T12:04:32.588Z,3.00
2023-01-30T12:07:22.142Z,3.10
2023-01-30T12:09:50.365Z,3.10
2023-01-30T12:12:30.157Z,3.20
2023-01-30T12:15:29.465Z,3.20
2023-01-30T12:18:10.712Z,3.30
2023-01-30T12:20:52.736Z,3.30
2023-01-30T12:23:42.343Z,3.40
2023-01-30T12:26:37.089Z,3.50
2023-01-30T12:29:23.082Z,3.50
2023-01-30T12:32:20.546Z,3.60
2023-01-30T12:34:48.258Z,3.50
2023-01-30T12:37:30.219Z,3.50
2023-01-30T12:40:31.796Z,3.50
2023-01-30T12:43:29.780Z,3.60
2023-01-30T12:46:15.059Z,3.60
2023-01-30T12:49:07.881Z,3.60
2023-01-30T12:51:51.349Z,3.60
2023-01-30T12:54:37.501Z,3.60
2023-01-30T12:57:13.759Z,3.60
2023-01-30T13:00:14.193Z,3.60
2023-01-30T13:03:02.430Z,3.70
2023-01-30T13:05:50.888Z,3.80
2023-01-30T13:08:39.809Z,3.90
2023-01-30T13:11:32.350Z,4.00
2023-01-30T13:14:26.048Z,4.10
2023-01-30T13:17:23.314Z,4.00
2023-01-30T13:20:01.341Z,4.00
2023-01-30T13:22:41.792Z,4.00
2023-01-30T13:25:23.875Z,3.90
2023-01-30T13:27:57.520Z,3.90
2023-01-30T13:30:27.545Z,4.00
2023-01-30T13:33:08.738Z,4.00
2023-01-30T13:35:42.700Z,4.10
2023-01-30T13:38:20.578Z,4.10
2023-01-30T13:40:50.649Z,4.10
2023-01-30T13:43:30.278Z,4.20
2023-01-30T13:46:01.365Z,4.20
2023-01-30T13:48:44.454Z,4.30
2023-01-30T13:51:41.715Z,4.30
2023-01-30T13:54:27.304Z,4.30
2023-01-30T13:57:01.274Z,4.20
2023-01-30T14:00:16.844Z,4.20
2023-01-30T14:03:10.524Z,4.30
2023-01-30T14:05:52.296Z,4.30
2023-01-30T14:08:28.032Z,4.40
2023-01-30T14:10:56.492Z,4.40
2023-01-30T14:13:27.911Z,4.40
2023-01-30T14:16:00.857Z,4.40
2023-01-30T14:18:31.814Z,4.40
2023-01-30T14:21:24.672Z,4.40
2023-01-30T14:24:20.891Z,4.50
2023-01-30T14:26:47.508Z,4.40
2023-01-30T14:29:43.141Z,4.40
2023-01-30T14:32:13.937Z,4.40
2023-01-30T14:34:43.361Z,4.40
2023-01-30T14:37:44.657Z,4.40
2023-01-30T14:40:23.594Z,4.30
2023-01-30T14:43:11.826Z,4.30
2023-01-30T14:46:00.650Z,4.30
2023-01-30T14:48:44.341Z,4.30
2023-01-30T14:51:36.054Z,4.30
2023-01-30T14:54:08.224Z,4.30
2023-01-30T14:56:46.599Z,4.40
2023-01-30T14:59:16.185Z,4.40
2023-01-30T15:02:01.028Z,4.40
2023-01-30T15:04:31.508Z,4.30
2023-01-30T15:07:01.840Z,4.30
2023-01-30T15:09:30.272Z,4.30
2023-01-30T15:12:13.359Z,4.30
2023-01-30T15:15:13.824Z,4.30
2023-01-30T15:18:08.469Z,4.30
2023-01-30T15:21:05.634Z,4.30
2023-01-30T15:23:41.262Z,4.30
2023-01-30T15:26:21.578Z,4.20
2023-01-30T15:29:22.201Z,4.30
2023-01-30T15:31:56.624Z,4.20
2023-01-30T15:34:26.927Z,4.20
2023-01-30T15:36:53.544Z,4.30
2023-01-30T15:39:23.550Z,4.30
2023-01-30T15:41:57.184Z,4.30
2023-01-30T15:44:40.159Z,4.30
2023-01-30T15:47:35.932Z,4.30
2023-01-30T15:50:10.122Z,4.30
2023-01-30T15:52:44.999Z,4.30
2023-01-30T15:55:29.769Z,4.30
2023-01-30T15:58:18.664Z,4.30
2023-01-30T16:00:48.916Z,4.20
2023-01-30T16:03:24.093Z,4.20
2023-01-30T16:05:55.335Z,4.20
2023-01-30T16:08:30.798Z,4.20
2023-01-30T16:10:57.986Z,4.20
2023-01-30T16:13:24.811Z,4.20
2023-01-30T16:16:12.563Z,4.20
2023-01-30T16:18:47.250Z,4.20
2023-01-30T16:21:20.632Z,4.10
2023-01-30T16:24:16.308Z,4.10
2023-01-30T16:26:46.197Z,4.10
2023-01-30T16:29:20.456Z,4.10
2023-01-30T16:31:48.846Z,4.10
2023-01-30T16:34:34.970Z,4.10
2023-01-30T16:37:16.894Z,4.20
2023-01-30T16:39:45.689Z,4.20
2023-01-30T16:42:27.707Z,4.20
2023-01-30T16:45:12.906Z,4.20
2023-01-30T16:47:40.670Z,4.30
2023-01-30T16:50:36.694Z,4.20
2023-01-30T16:53:03.312Z,4.30
2023-01-30T16:55:29.960Z,4.30
2023-01-30T16:58:00.860Z,4.30
2023-01-30T17:00:38.700Z,4.40
2023-01-30T17:03:08.015Z,4.40
2023-01-30T17:05:42.924Z,4.40
2023-01-30T17:08:47.803Z,4.40
2023-01-30T17:11:41.151Z,4.40
2023-01-30T17:14:30.452Z,4.30
2023-01-30T17:17:01.587Z,4.30
2023-01-30T17:19:28.203Z,4.40
2023-01-30T17:21:57.047Z,4.30
2023-01-30T17:24:25.367Z,4.30
2023-01-30T17:26:59.126Z,4.20
2023-01-30T17:29:49.146Z,4.20
2023-01-30T17:32:16.176Z,4.20
2023-01-30T17:34:42.873Z,4.20
2023-01-30T17:37:16.750Z,4.20
2023-01-30T17:39:43.320Z,4.20
2023-01-30T17:42:11.212Z,4.20
2023-01-30T17:44:37.987Z,4.20
2023-01-30T17:47:05.091Z,4.20
2023-01-30T17:49:32.133Z,4.20
2023-01-30T17:52:01.382Z,4.20
2023-01-30T17:54:29.925Z,4.20
2023-01-30T17:57:04.174Z,4.20
2023-01-30T17:59:31.540Z,4.20
2023-01-30T18:01:59.225Z,4.20
2023-01-30T18:04:25.965Z,4.20
2023-01-30T18:07:06.137Z,4.20
2023-01-30T18:09:32.742Z,4.20
2023-01-30T18:11:59.475Z,4.20
2023-01-30T18:14:26.064Z,4.20
2023-01-30T18:16:53.131Z,4.20
2023-01-30T18:19:23.791Z,4.30
2023-01-30T18:21:50.408Z,4.30
2023-01-30T18:24:18.298Z,4.20
2023-01-30T18:26:45.451Z,4.20
2023-01-30T18:29:12.726Z,4.20
2023-01-30T18:31:40.203Z,4.20
2023-01-30T18:34:07.476Z,4.20
2023-01-30T18:36:35.327Z,4.20
2023-01-30T18:39:02.902Z,4.20
2023-01-30T18:41:30.466Z,4.10
2023-01-30T18:44:02.919Z,4.20
2023-01-30T18:46:30.379Z,4.20
2023-01-30T18:48:57.804Z,4.20
2023-01-30T18:51:33.990Z,4.20
2023-01-30T18:54:01.260Z,4.20
2023-01-30T18:56:31.303Z,4.10
2023-01-30T18:59:02.426Z,4.10
2023-01-30T19:01:31.365Z,4.10
2023-01-30T19:04:00.204Z,4.10
2023-01-30T19:06:28.259Z,4.10
2023-01-30T19:08:56.547Z,4.00
2023-01-30T19:11:42.448Z,3.90
2023-01-30T19:14:09.337Z,3.90
2023-01-30T19:16:37.918Z,3.80
2023-01-30T19:19:05.967Z,3.80
2023-01-30T19:21:33.280Z,3.80
2023-01-30T19:24:03.147Z,3.80
2023-01-30T19:26:30.359Z,3.80
2023-01-30T19:28:57.116Z,3.80
2023-01-30T19:31:23.818Z,3.80
2023-01-30T19:33:58.340Z,3.90
2023-01-30T19:36:27.052Z,3.90
2023-01-30T19:38:53.852Z,3.90
2023-01-30T19:41:24.859Z,3.90
2023-01-30T19:43:52.835Z,3.90
2023-01-30T19:46:19.915Z,3.90
2023-01-30T19:48:47.800Z,3.90
2023-01-30T19:51:20.370Z,3.80
2023-01-30T19:53:51.594Z,3.70
2023-01-30T19:56:21.592Z,3.70
2023-01-30T19:58:50.660Z,3.60
2023-01-30T20:01:19.377Z,3.50
2023-01-30T20:03:46.441Z,3.50
2023-01-30T20:06:17.789Z,3.50
2023-01-30T20:08:45.945Z,3.50
2023-01-30T20:11:14.955Z,3.50
2023-01-30T20:13:42.876Z,3.50
2023-01-30T20:16:15.145Z,3.50
2023-01-30T20:18:41.893Z,3.50
2023-01-30T20:21:11.331Z,3.50
2023-01-30T20:23:38.801Z,3.40
2023-01-30T20:26:07.373Z,3.50
2023-01-30T20:28:34.799Z,3.40
2023-01-30T20:31:27.051Z,3.40
2023-01-30T20:33:56.556Z,3.40
2023-01-30T20:36:25.109Z,3.30
2023-01-30T20:38:52.529Z,3.30
2023-01-30T20:41:23.940Z,3.30
2023-01-30T20:43:53.398Z,3.30
2023-01-30T20:46:22.825Z,3.30
2023-01-30T20:48:52.255Z,3.30
2023-01-30T20:51:23.850Z,3.20
2023-01-30T20:53:58.835Z,3.30
2023-01-30T20:56:30.387Z,3.30
2023-01-30T20:58:57.035Z,3.30
2023-01-30T21:01:24.467Z,3.30
2023-01-30T21:03:53.522Z,3.40
2023-01-30T21:06:42.554Z,3.30
2023-01-30T21:09:11.950Z,3.40
2023-01-30T21:11:39.472Z,3.30
2023-01-30T21:14:06.346Z,3.30
2023-01-30T21:16:35.229Z,3.30
2023-01-30T21:19:05.298Z,3.20
2023-01-30T21:21:39.113Z,3.30
2023-01-30T21:24:11.969Z,3.20
2023-01-30T21:26:41.092Z,3.10
2023-01-30T21:29:08.537Z,3.20
2023-01-30T21:31:36.804Z,3.10
2023-01-30T21:34:04.186Z,3.00
2023-01-30T21:36:31.639Z,3.00
2023-01-30T21:39:17.140Z,2.90
2023-01-30T21:41:45.317Z,3.00
2023-01-30T21:44:13.740Z,2.80
2023-01-30T21:46:48.145Z,2.70
2023-01-30T21:49:16.661Z,2.60
2023-01-30T21:51:45.226Z,2.60
2023-01-30T21:54:12.643Z,2.70
2023-01-30T21:56:40.702Z,2.70
2023-01-30T21:59:08.565Z,2.80
2023-01-30T22:01:36.990Z,2.70
2023-01-30T22:04:05.568Z,2.60
2023-01-30T22:06:32.833Z,2.70
2023-01-30T22:09:01.944Z,2.70
2023-01-30T22:11:29.467Z,2.70
2023-01-30T22:13:56.688Z,2.70
2023-01-30T22:16:28.151Z,2.60
2023-01-30T22:18:57.594Z,2.50
2023-01-30T22:21:26.179Z,2.40
2023-01-30T22:23:54.887Z,2.40
2023-01-30T22:26:23.392Z,2.40
2023-01-30T22:28:58.109Z,2.40
2023-01-30T22:31:26.671Z,2.40
2023-01-30T22:33:55.276Z,2.40
2023-01-30T22:36:28.054Z,2.40
2023-01-30T22:38:54.987Z,2.40
2023-01-30T22:41:23.487Z,2.40
2023-01-30T22:43:52.696Z,2.40
2023-01-30T22:46:20.074Z,2.30
2023-01-30T22:48:47.224Z,2.40
2023-01-30T22:51:19.366Z,2.40
2023-01-30T22:53:48.807Z,2.40
2023-01-30T22:56:18.389Z,2.40
2023-01-30T22:58:46.293Z,2.40
2023-01-30T23:01:24.819Z,2.50
2023-01-30T23:03:56.127Z,2.50
2023-01-30T23:06:23.648Z,2.50
2023-01-30T23:08:51.051Z,2.50
2023-01-30T23:11:20.789Z,2.50
2023-01-30T23:13:50.131Z,2.40
2023-01-30T23:16:19.081Z,2.40
2023-01-30T23:19:01.982Z,2.40
2023-01-30T23:21:37.854Z,2.30
2023-01-30T23:24:07.490Z,2.30
2023-01-30T23:26:36.657Z,2.30
2023-01-30T23:29:07.640Z,2.40
2023-01-30T23:31:35.541Z,2.40
2023-01-30T23:34:04.673Z,2.40
2023-01-30T23:36:31.330Z,2.40
2023-01-30T23:38:59.730Z,2.50
2023-01-30T23:41:32.407Z,2.50
2023-01-30T23:44:00.231Z,2.60
2023-01-30T23:46:29.877Z,2.60
2023-01-30T23:48:59.002Z,2.60
2023-01-30T23:51:28.331Z,2.60
2023-01-30T23:53:55.866Z,2.70
2023-01-30T23:56:25.031Z,2.70
2023-01-30T23:58:51.971Z,2.60
